José Martí International Airport
MUHA : now visible

Airfield :











YOU CAN JOIN US ON...

 
LOGIN :

Register | Disclaimer

   EN    FR    IT 

 









Legend :    VFR   Marginal VFR   IFR   Intensive IFR   Very Intensive IFR
Visi :
Ceiling :
>= 8 km
>= 3000ft
5 to 8 km
1000 to 3000 ft
1500m to 5 km
500 to 1000 ft
800 to 1500m
200 to 500 ft
< 800m
< 200 ft
Symbols :   Thunderstorms  Fog  Heavy snow  Heavy precipitations  Wind > 20 kt






- Airport Elevation : 210 ft
- IATA code : HAV


MUHA - José Martí International

CURRENT METAR :
  • 200755Z 17003KT 130V210 9000 BKN020 26/26 Q1012

EXPIRED METARs :
  • 200655Z VRB02KT 9000 BKN020 25/25 Q1012
  • 200555Z VRB02KT 9000 SCT020 BKN180 25/25 Q1013

TAF MUHA
Valid from the 20 at 06:00 until the 21 at 06:00 UTC


200500Z 2006/2106 19006KT 9000 SCT030 BKN180



MET'MAP, your aeronautical weather chart ! - Copyright ORBIFLY December 2007 - Disclaimer

ORBIFLY MET'MAP TEAM :

Programming & Development : Alexandra Zaïnal
Concept & Development : Baudouin d'Aumeries
Co-Development & Prog : Marc-Olivier Méhu
Technical & hardware support : Manuel Goepfert

Contact : metmap@orbifly.com




SOURCES & CREDITS :

   NOAA       Earth
Advisory